Airfield :
LOGIN :

Register | Disclaimer

   EN    FR    IT 

 










Legend :    VFR   Marginal VFR   IFR   Intensive IFR   Very Intensive IFR
Visi :
Ceiling :
>= 8 km
>= 3000ft
5 to 8 km
1000 to 3000 ft
1500m to 5 km
500 to 1000 ft
800 to 1500m
200 to 500 ft
< 800m
< 200 ft
Symbols :   Thunderstorms  Fog  Heavy snow  Heavy precipitations  Wind > 20 kt
SIGMETs :     Misc.  Thunderstorms  Icing  Turbulence  Mountain Waves  Volcanic Ashes






- Airport Elevation : 788 ft
- IATA code : DCM


LFCK - Castres-Mazamet

CURRENT METAR :
  • 021200Z AUTO 29015KT 9999 OVC006 04/03 Q1017 TEMPO RADZ

EXPIRED METARs :
  • 021130Z AUTO 29013KT 9999 OVC007 04/03 Q1017 TEMPO RADZ
  • 021100Z AUTO 29013KT 9999 OVC007 04/03 Q1017 TEMPO 4000 RADZ
  • 021030Z AUTO 29012KT 9999 -RA OVC007 03/03 Q1018 TEMPO 4000 RADZ
  • 021000Z AUTO 29014KT 9000 -RA OVC006 03/03 Q1018 TEMPO 4000 -RADZ
  • 020930Z AUTO 30015KT 8000 RA OVC006/// ///TCU 03/03 Q1018 TEMPO 4000 -RADZ OVC006

TAF TAF LFCK
Valid from the 02 at 12:00 until the 02 at 21:00 UTC


021100Z 0212/0221 30015KT 9999 OVC008
TEMPO 0212/0219 7000 RADZ OVC005



MET'MAP, your aeronautical weather chart ! - Copyright ORBIFLY December 2007 - Disclaimer

ORBIFLY MET'MAP TEAM :

Programming & Development : Alexandra Zaïnal
Concept & original design : Baudouin d'Aumeries
Assistance for programming : Marc-Olivier Méhu
Technical & hardware support : Manuel Goepfert

Contact : metmap@orbifly.com




SOURCES & CREDITS :

   NOAA